sensor_id;sensor_type;location;lat;lon;timestamp;noise_LAeq;noise_LA_min;noise_LA_max;noise_LA01;noise_LA95
49732;Laerm;43666;51.442;6.778;2023-01-09T00:01:45;39.27;33.44;42.35;;
49732;Laerm;43666;51.442;6.778;2023-01-09T00:04:14;39.11;32.35;42.22;;
49732;Laerm;43666;51.442;6.778;2023-01-09T00:06:40;39.11;31.68;42.35;;
49732;Laerm;43666;51.442;6.778;2023-01-09T00:09:27;39.05;32.93;41.96;;
49732;Laerm;43666;51.442;6.778;2023-01-09T00:11:53;39.05;33.44;42.35;;
49732;Laerm;43666;51.442;6.778;2023-01-09T00:14:22;39.03;32.35;42.09;;
49732;Laerm;43666;51.442;6.778;2023-01-09T00:16:48;38.92;31.68;42.16;;
49732;Laerm;43666;51.442;6.778;2023-01-09T00:19:14;39.14;32.35;42.41;;
49732;Laerm;43666;51.442;6.778;2023-01-09T00:21:40;39.21;33.90;42.22;;
49732;Laerm;43666;51.442;6.778;2023-01-09T00:24:05;39.10;32.93;42.03;;
49732;Laerm;43666;51.442;6.778;2023-01-09T00:26:31;39.39;32.35;42.41;;
49732;Laerm;43666;51.442;6.778;2023-01-09T00:28:57;39.47;34.69;42.88;;
49732;Laerm;43666;51.442;6.778;2023-01-09T00:31:23;39.40;33.90;41.96;;
49732;Laerm;43666;51.442;6.778;2023-01-09T00:33:51;39.15;32.93;42.29;;
49732;Laerm;43666;51.442;6.778;2023-01-09T00:36:19;38.99;32.93;42.03;;
49732;Laerm;43666;51.442;6.778;2023-01-09T00:38:44;39.21;32.93;42.35;;
49732;Laerm;43666;51.442;6.778;2023-01-09T00:41:12;39.12;32.93;42.13;;
49732;Laerm;43666;51.442;6.778;2023-01-09T00:43:40;38.77;32.93;42.03;;
49732;Laerm;43666;51.442;6.778;2023-01-09T00:46:08;38.77;29.92;41.89;;
49732;Laerm;43666;51.442;6.778;2023-01-09T00:48:36;38.77;33.44;41.68;;
49732;Laerm;43666;51.442;6.778;2023-01-09T00:51:03;38.77;31.68;42.93;;
49732;Laerm;43666;51.442;6.778;2023-01-09T00:53:30;39.00;32.35;42.36;;
49732;Laerm;43666;51.442;6.778;2023-01-09T00:55:57;38.81;31.68;42.47;;
49732;Laerm;43666;51.442;6.778;2023-01-09T00:58:24;38.91;31.68;42.13;;
49732;Laerm;43666;51.442;6.778;2023-01-09T01:00:50;38.82;32.35;42.29;;
49732;Laerm;43666;51.442;6.778;2023-01-09T01:03:16;38.70;31.68;42.71;;
49732;Laerm;43666;51.442;6.778;2023-01-09T01:05:42;39.22;31.68;42.59;;
49732;Laerm;43666;51.442;6.778;2023-01-09T01:08:26;39.24;33.90;42.82;;
49732;Laerm;43666;51.442;6.778;2023-01-09T01:10:53;39.21;32.93;42.76;;
49732;Laerm;43666;51.442;6.778;2023-01-09T01:13:19;39.33;33.90;42.98;;
49732;Laerm;43666;51.442;6.778;2023-01-09T01:15:45;39.49;33.44;42.41;;
49732;Laerm;43666;51.442;6.778;2023-01-09T01:18:11;39.17;33.09;42.24;;
49732;Laerm;43666;51.442;6.778;2023-01-09T01:20:40;39.38;30.89;42.22;;
49732;Laerm;43666;51.442;6.778;2023-01-09T01:23:07;39.30;31.68;42.65;;
49732;Laerm;43666;51.442;6.778;2023-01-09T01:25:34;39.25;33.44;42.19;;
49732;Laerm;43666;51.442;6.778;2023-01-09T01:28:00;39.42;33.44;42.53;;
49732;Laerm;43666;51.442;6.778;2023-01-09T01:30:26;39.39;33.90;43.81;;
49732;Laerm;43666;51.442;6.778;2023-01-09T01:32:53;39.23;32.93;42.22;;
49732;Laerm;43666;51.442;6.778;2023-01-09T01:35:19;39.53;33.55;42.71;;
49732;Laerm;43666;51.442;6.778;2023-01-09T01:37:45;39.60;34.31;42.53;;
49732;Laerm;43666;51.442;6.778;2023-01-09T01:40:13;39.48;33.90;42.76;;
49732;Laerm;43666;51.442;6.778;2023-01-09T01:42:50;39.43;32.93;42.29;;
49732;Laerm;43666;51.442;6.778;2023-01-09T01:45:22;39.29;29.92;42.35;;
49732;Laerm;43666;51.442;6.778;2023-01-09T01:47:53;39.41;32.35;43.09;;
49732;Laerm;43666;51.442;6.778;2023-01-09T01:50:39;39.51;34.31;42.30;;
49732;Laerm;43666;51.442;6.778;2023-01-09T01:53:06;39.41;32.00;42.09;;
49732;Laerm;43666;51.442;6.778;2023-01-09T01:55:34;39.43;33.90;42.30;;
49732;Laerm;43666;51.442;6.778;2023-01-09T01:58:01;39.40;32.93;43.63;;
49732;Laerm;43666;51.442;6.778;2023-01-09T02:00:32;39.31;30.89;42.41;;
49732;Laerm;43666;51.442;6.778;2023-01-09T02:02:59;39.46;34.31;42.93;;
49732;Laerm;43666;51.442;6.778;2023-01-09T02:05:26;39.08;33.44;42.22;;
49732;Laerm;43666;51.442;6.778;2023-01-09T02:07:53;38.92;32.35;41.75;;
49732;Laerm;43666;51.442;6.778;2023-01-09T02:10:19;38.92;32.93;42.79;;
49732;Laerm;43666;51.442;6.778;2023-01-09T02:12:49;39.18;32.35;42.29;;
49732;Laerm;43666;51.442;6.778;2023-01-09T02:15:15;39.21;31.68;42.47;;
49732;Laerm;43666;51.442;6.778;2023-01-09T02:22:52;39.21;32.93;42.41;;
49732;Laerm;43666;51.442;6.778;2023-01-09T02:38:07;39.49;30.89;42.53;;
49732;Laerm;43666;51.442;6.778;2023-01-09T02:43:20;39.51;29.92;42.71;;
49732;Laerm;43666;51.442;6.778;2023-01-09T02:45:47;39.50;32.93;42.53;;
49732;Laerm;43666;51.442;6.778;2023-01-09T02:48:13;39.44;33.90;42.53;;
49732;Laerm;43666;51.442;6.778;2023-01-09T02:50:47;39.46;33.90;42.98;;
49732;Laerm;43666;51.442;6.778;2023-01-09T02:53:20;39.36;32.93;42.16;;
49732;Laerm;43666;51.442;6.778;2023-01-09T03:01:05;39.33;33.90;42.16;;
49732;Laerm;43666;51.442;6.778;2023-01-09T03:06:12;39.67;33.44;42.65;;
49732;Laerm;43666;51.442;6.778;2023-01-09T03:08:41;39.47;33.90;42.82;;
49732;Laerm;43666;51.442;6.778;2023-01-09T03:11:07;39.40;33.09;42.16;;
49732;Laerm;43666;51.442;6.778;2023-01-09T03:13:46;39.29;33.44;42.22;;
49732;Laerm;43666;51.442;6.778;2023-01-09T03:16:15;39.13;33.90;41.82;;
49732;Laerm;43666;51.442;6.778;2023-01-09T03:18:43;39.15;33.90;42.22;;
49732;Laerm;43666;51.442;6.778;2023-01-09T03:21:11;39.12;31.68;42.22;;
49732;Laerm;43666;51.442;6.778;2023-01-09T03:23:47;39.30;33.44;42.29;;
49732;Laerm;43666;51.442;6.778;2023-01-09T03:26:14;39.29;33.90;42.35;;
49732;Laerm;43666;51.442;6.778;2023-01-09T03:28:39;39.14;33.44;42.16;;
49732;Laerm;43666;51.442;6.778;2023-01-09T03:31:06;39.11;32.93;42.09;;
49732;Laerm;43666;51.442;6.778;2023-01-09T03:33:31;39.05;33.44;41.88;;
49732;Laerm;43666;51.442;6.778;2023-01-09T03:35:57;39.23;32.93;42.22;;
49732;Laerm;43666;51.442;6.778;2023-01-09T03:38:22;39.38;33.44;42.47;;
49732;Laerm;43666;51.442;6.778;2023-01-09T03:40:48;39.17;33.90;42.29;;
49732;Laerm;43666;51.442;6.778;2023-01-09T03:43:14;39.16;29.92;41.96;;
49732;Laerm;43666;51.442;6.778;2023-01-09T03:45:41;39.35;31.68;42.88;;
49732;Laerm;43666;51.442;6.778;2023-01-09T03:48:07;39.22;33.90;42.71;;
49732;Laerm;43666;51.442;6.778;2023-01-09T03:50:33;39.09;32.35;41.96;;
49732;Laerm;43666;51.442;6.778;2023-01-09T03:52:59;39.07;33.44;42.09;;
49732;Laerm;43666;51.442;6.778;2023-01-09T03:55:25;39.05;31.68;42.74;;
49732;Laerm;43666;51.442;6.778;2023-01-09T03:57:51;39.09;33.44;42.59;;
49732;Laerm;43666;51.442;6.778;2023-01-09T04:00:20;39.04;33.44;42.09;;
49732;Laerm;43666;51.442;6.778;2023-01-09T04:02:46;39.12;31.68;42.03;;
49732;Laerm;43666;51.442;6.778;2023-01-09T04:05:12;39.05;33.90;42.16;;
49732;Laerm;43666;51.442;6.778;2023-01-09T04:07:38;39.12;32.93;43.04;;
49732;Laerm;43666;51.442;6.778;2023-01-09T04:10:04;39.13;32.93;42.03;;
49732;Laerm;43666;51.442;6.778;2023-01-09T04:12:30;39.24;32.35;42.65;;
49732;Laerm;43666;51.442;6.778;2023-01-09T04:14:56;39.23;33.55;42.35;;
49732;Laerm;43666;51.442;6.778;2023-01-09T04:17:22;39.35;33.44;42.59;;
49732;Laerm;43666;51.442;6.778;2023-01-09T04:19:47;39.36;32.93;42.71;;
49732;Laerm;43666;51.442;6.778;2023-01-09T04:22:13;39.24;32.35;42.59;;
49732;Laerm;43666;51.442;6.778;2023-01-09T04:24:38;39.40;33.90;42.71;;
49732;Laerm;43666;51.442;6.778;2023-01-09T04:27:04;39.18;32.93;41.96;;
49732;Laerm;43666;51.442;6.778;2023-01-09T04:29:30;39.00;33.44;42.42;;
49732;Laerm;43666;51.442;6.778;2023-01-09T04:31:56;39.15;32.35;42.65;;
49732;Laerm;43666;51.442;6.778;2023-01-09T04:34:21;39.19;33.90;42.16;;
49732;Laerm;43666;51.442;6.778;2023-01-09T04:36:53;39.17;32.35;42.35;;
49732;Laerm;43666;51.442;6.778;2023-01-09T04:39:20;39.23;33.44;42.29;;
49732;Laerm;43666;51.442;6.778;2023-01-09T04:41:46;39.01;32.93;41.96;;
49732;Laerm;43666;51.442;6.778;2023-01-09T04:44:15;39.01;26.91;42.29;;
49732;Laerm;43666;51.442;6.778;2023-01-09T04:46:41;39.09;31.68;42.03;;
49732;Laerm;43666;51.442;6.778;2023-01-09T04:49:07;39.05;33.44;41.89;;
49732;Laerm;43666;51.442;6.778;2023-01-09T04:51:32;39.34;32.35;42.53;;
49732;Laerm;43666;51.442;6.778;2023-01-09T04:53:58;39.21;33.44;42.59;;
49732;Laerm;43666;51.442;6.778;2023-01-09T04:56:24;39.20;33.90;42.41;;
49732;Laerm;43666;51.442;6.778;2023-01-09T04:58:49;39.18;32.35;42.41;;
49732;Laerm;43666;51.442;6.778;2023-01-09T05:01:15;39.17;32.93;42.16;;
49732;Laerm;43666;51.442;6.778;2023-01-09T05:03:41;39.28;32.93;42.22;;
49732;Laerm;43666;51.442;6.778;2023-01-09T05:06:06;39.09;33.44;41.82;;
49732;Laerm;43666;51.442;6.778;2023-01-09T05:08:32;38.97;30.89;42.03;;
49732;Laerm;43666;51.442;6.778;2023-01-09T05:10:58;38.96;32.93;41.82;;
49732;Laerm;43666;51.442;6.778;2023-01-09T05:13:25;39.39;31.33;42.53;;
49732;Laerm;43666;51.442;6.778;2023-01-09T05:15:51;38.92;33.90;42.09;;
49732;Laerm;43666;51.442;6.778;2023-01-09T05:18:17;38.84;31.68;42.35;;
49732;Laerm;43666;51.442;6.778;2023-01-09T05:20:42;39.15;31.68;42.53;;
49732;Laerm;43666;51.442;6.778;2023-01-09T05:23:08;39.07;32.35;42.41;;
49732;Laerm;43666;51.442;6.778;2023-01-09T05:25:34;39.38;32.35;42.76;;
49732;Laerm;43666;51.442;6.778;2023-01-09T05:28:00;38.95;32.35;42.35;;
49732;Laerm;43666;51.442;6.778;2023-01-09T05:30:26;39.25;32.93;42.59;;
49732;Laerm;43666;51.442;6.778;2023-01-09T05:32:52;38.67;31.68;42.29;;
49732;Laerm;43666;51.442;6.778;2023-01-09T05:35:18;38.51;32.35;41.96;;
49732;Laerm;43666;51.442;6.778;2023-01-09T05:37:44;38.83;31.68;42.47;;
49732;Laerm;43666;51.442;6.778;2023-01-09T05:40:10;39.07;31.68;42.16;;
49732;Laerm;43666;51.442;6.778;2023-01-09T05:42:37;38.96;29.92;42.53;;
49732;Laerm;43666;51.442;6.778;2023-01-09T05:45:03;39.12;33.44;42.16;;
49732;Laerm;43666;51.442;6.778;2023-01-09T05:47:29;38.99;33.44;42.06;;
49732;Laerm;43666;51.442;6.778;2023-01-09T05:49:55;38.96;32.35;42.03;;
49732;Laerm;43666;51.442;6.778;2023-01-09T05:52:21;38.56;31.68;42.00;;
49732;Laerm;43666;51.442;6.778;2023-01-09T05:54:47;38.93;32.93;42.16;;
49732;Laerm;43666;51.442;6.778;2023-01-09T05:57:13;39.05;30.89;42.03;;
49732;Laerm;43666;51.442;6.778;2023-01-09T05:59:39;39.00;32.35;42.35;;
49732;Laerm;43666;51.442;6.778;2023-01-09T06:02:05;38.83;32.93;42.09;;
49732;Laerm;43666;51.442;6.778;2023-01-09T06:04:30;38.79;32.93;41.61;;
49732;Laerm;43666;51.442;6.778;2023-01-09T06:06:56;38.98;32.35;42.41;;
49732;Laerm;43666;51.442;6.778;2023-01-09T06:09:21;38.90;33.44;42.16;;
49732;Laerm;43666;51.442;6.778;2023-01-09T06:11:47;39.14;32.35;41.96;;
49732;Laerm;43666;51.442;6.778;2023-01-09T06:14:14;38.89;32.93;41.61;;
49732;Laerm;43666;51.442;6.778;2023-01-09T06:16:40;38.91;33.90;41.68;;
49732;Laerm;43666;51.442;6.778;2023-01-09T06:19:06;38.55;32.35;41.68;;
49732;Laerm;43666;51.442;6.778;2023-01-09T06:21:31;38.59;31.68;41.75;;
49732;Laerm;43666;51.442;6.778;2023-01-09T06:23:57;38.54;31.68;41.75;;
49732;Laerm;43666;51.442;6.778;2023-01-09T06:26:24;38.64;32.35;42.22;;
49732;Laerm;43666;51.442;6.778;2023-01-09T06:28:49;38.75;32.35;41.75;;
49732;Laerm;43666;51.442;6.778;2023-01-09T06:31:15;38.63;32.35;43.99;;
49732;Laerm;43666;51.442;6.778;2023-01-09T06:33:40;39.05;30.89;42.71;;
49732;Laerm;43666;51.442;6.778;2023-01-09T06:36:06;39.16;30.89;43.04;;
49732;Laerm;43666;51.442;6.778;2023-01-09T06:38:32;38.37;30.89;41.30;;
49732;Laerm;43666;51.442;6.778;2023-01-09T06:40:58;38.44;32.35;41.61;;
49732;Laerm;43666;51.442;6.778;2023-01-09T06:43:24;38.33;30.89;41.82;;
49732;Laerm;43666;51.442;6.778;2023-01-09T06:45:49;38.32;32.35;42.03;;
49732;Laerm;43666;51.442;6.778;2023-01-09T06:48:15;38.27;31.68;41.06;;
49732;Laerm;43666;51.442;6.778;2023-01-09T06:50:41;38.31;30.89;41.46;;
49732;Laerm;43666;51.442;6.778;2023-01-09T06:53:06;38.25;32.35;41.68;;
49732;Laerm;43666;51.442;6.778;2023-01-09T06:55:32;38.24;31.68;41.22;;
49732;Laerm;43666;51.442;6.778;2023-01-09T06:57:58;38.96;31.68;42.35;;
49732;Laerm;43666;51.442;6.778;2023-01-09T07:00:23;38.92;31.68;42.09;;
49732;Laerm;43666;51.442;6.778;2023-01-09T07:02:50;39.13;29.92;42.76;;
49732;Laerm;43666;51.442;6.778;2023-01-09T07:05:16;38.68;32.35;41.89;;
49732;Laerm;43666;51.442;6.778;2023-01-09T07:07:41;38.53;32.35;41.96;;
49732;Laerm;43666;51.442;6.778;2023-01-09T07:10:08;38.72;32.35;41.82;;
49732;Laerm;43666;51.442;6.778;2023-01-09T07:12:34;38.69;32.35;41.89;;
49732;Laerm;43666;51.442;6.778;2023-01-09T07:15:00;38.83;32.93;41.96;;
49732;Laerm;43666;51.442;6.778;2023-01-09T07:17:26;38.84;32.93;42.09;;
49732;Laerm;43666;51.442;6.778;2023-01-09T07:19:52;38.88;31.68;42.03;;
49732;Laerm;43666;51.442;6.778;2023-01-09T07:22:17;38.82;31.68;42.22;;
49732;Laerm;43666;51.442;6.778;2023-01-09T07:24:43;38.56;32.35;41.82;;
49732;Laerm;43666;51.442;6.778;2023-01-09T07:27:09;38.15;32.35;41.75;;
49732;Laerm;43666;51.442;6.778;2023-01-09T07:29:35;38.47;32.93;41.53;;
49732;Laerm;43666;51.442;6.778;2023-01-09T07:32:01;38.13;29.92;41.55;;
49732;Laerm;43666;51.442;6.778;2023-01-09T07:34:27;38.00;31.68;41.30;;
49732;Laerm;43666;51.442;6.778;2023-01-09T07:36:53;37.98;32.35;41.75;;
49732;Laerm;43666;51.442;6.778;2023-01-09T07:39:19;38.35;30.89;41.68;;
49732;Laerm;43666;51.442;6.778;2023-01-09T07:41:45;38.44;30.89;42.03;;
49732;Laerm;43666;51.442;6.778;2023-01-09T07:44:11;38.93;33.44;42.09;;
49732;Laerm;43666;51.442;6.778;2023-01-09T07:46:36;39.05;33.44;42.35;;
49732;Laerm;43666;51.442;6.778;2023-01-09T07:49:02;39.25;32.35;42.03;;
49732;Laerm;43666;51.442;6.778;2023-01-09T07:51:28;39.32;32.93;42.16;;
49732;Laerm;43666;51.442;6.778;2023-01-09T07:53:53;39.28;32.93;42.53;;
49732;Laerm;43666;51.442;6.778;2023-01-09T07:56:19;39.22;33.44;42.59;;
49732;Laerm;43666;51.442;6.778;2023-01-09T07:58:48;39.39;32.93;42.29;;
49732;Laerm;43666;51.442;6.778;2023-01-09T08:01:13;39.48;32.35;42.03;;
49732;Laerm;43666;51.442;6.778;2023-01-09T08:03:39;39.38;31.68;42.41;;
49732;Laerm;43666;51.442;6.778;2023-01-09T08:06:05;39.49;30.89;42.65;;
49732;Laerm;43666;51.442;6.778;2023-01-09T08:08:31;39.54;34.31;43.04;;
49732;Laerm;43666;51.442;6.778;2023-01-09T08:10:56;39.38;34.31;42.09;;
49732;Laerm;43666;51.442;6.778;2023-01-09T08:13:22;39.42;33.90;42.35;;
49732;Laerm;43666;51.442;6.778;2023-01-09T08:15:48;39.56;33.90;42.35;;
49732;Laerm;43666;51.442;6.778;2023-01-09T08:18:13;39.63;33.44;42.59;;
49732;Laerm;43666;51.442;6.778;2023-01-09T08:20:39;39.44;32.00;42.35;;
49732;Laerm;43666;51.442;6.778;2023-01-09T08:23:05;39.46;32.35;42.22;;
49732;Laerm;43666;51.442;6.778;2023-01-09T08:25:31;39.38;32.93;41.89;;
49732;Laerm;43666;51.442;6.778;2023-01-09T08:27:57;39.34;33.90;41.96;;
49732;Laerm;43666;51.442;6.778;2023-01-09T08:30:23;39.46;33.44;42.59;;
49732;Laerm;43666;51.442;6.778;2023-01-09T08:32:49;39.15;33.44;42.29;;
49732;Laerm;43666;51.442;6.778;2023-01-09T08:35:16;39.09;33.90;42.09;;
49732;Laerm;43666;51.442;6.778;2023-01-09T08:37:43;38.86;32.35;42.03;;
49732;Laerm;43666;51.442;6.778;2023-01-09T08:40:09;38.87;32.35;41.96;;
49732;Laerm;43666;51.442;6.778;2023-01-09T08:42:35;39.05;33.44;42.22;;
49732;Laerm;43666;51.442;6.778;2023-01-09T08:45:19;39.12;32.35;42.65;;
49732;Laerm;43666;51.442;6.778;2023-01-09T08:48:04;38.86;26.91;42.35;;
49732;Laerm;43666;51.442;6.778;2023-01-09T08:50:29;38.82;31.68;42.03;;
49732;Laerm;43666;51.442;6.778;2023-01-09T08:52:55;39.03;32.93;42.09;;
49732;Laerm;43666;51.442;6.778;2023-01-09T08:55:21;39.32;33.44;42.35;;
49732;Laerm;43666;51.442;6.778;2023-01-09T08:57:47;39.43;34.31;42.41;;
49732;Laerm;43666;51.442;6.778;2023-01-09T09:00:13;39.34;32.93;42.35;;
49732;Laerm;43666;51.442;6.778;2023-01-09T09:02:39;39.38;33.90;42.35;;
49732;Laerm;43666;51.442;6.778;2023-01-09T09:05:05;39.55;32.35;42.59;;
49732;Laerm;43666;51.442;6.778;2023-01-09T09:07:31;39.48;31.68;42.53;;
49732;Laerm;43666;51.442;6.778;2023-01-09T09:09:57;39.44;32.35;42.59;;
49732;Laerm;43666;51.442;6.778;2023-01-09T09:12:22;39.50;33.44;42.71;;
49732;Laerm;43666;51.442;6.778;2023-01-09T09:14:48;39.58;34.69;42.71;;
49732;Laerm;43666;51.442;6.778;2023-01-09T09:17:32;39.50;33.90;42.29;;
49732;Laerm;43666;51.442;6.778;2023-01-09T09:19:59;39.32;28.67;42.71;;
49732;Laerm;43666;51.442;6.778;2023-01-09T09:22:25;39.38;31.68;42.41;;
49732;Laerm;43666;51.442;6.778;2023-01-09T09:24:51;39.22;32.35;42.22;;
49732;Laerm;43666;51.442;6.778;2023-01-09T09:27:17;39.25;33.90;41.96;;
49732;Laerm;43666;51.442;6.778;2023-01-09T09:29:43;39.24;33.44;42.09;;
49732;Laerm;43666;51.442;6.778;2023-01-09T09:32:08;39.23;34.31;42.47;;
49732;Laerm;43666;51.442;6.778;2023-01-09T09:34:35;39.45;33.90;42.29;;
49732;Laerm;43666;51.442;6.778;2023-01-09T09:37:00;39.31;31.68;42.03;;
49732;Laerm;43666;51.442;6.778;2023-01-09T09:39:26;39.02;32.93;43.39;;
49732;Laerm;43666;51.442;6.778;2023-01-09T09:47:52;38.20;29.92;42.09;;
49732;Laerm;43666;51.442;6.778;2023-01-09T09:53:20;38.03;28.67;42.41;;
49732;Laerm;43666;51.442;6.778;2023-01-09T09:55:50;38.09;28.67;42.35;;
49732;Laerm;43666;51.442;6.778;2023-01-09T09:58:18;38.11;30.89;41.82;;
49732;Laerm;43666;51.442;6.778;2023-01-09T10:00:49;38.36;31.68;41.75;;
49732;Laerm;43666;51.442;6.778;2023-01-09T10:03:38;38.11;30.89;41.75;;
49732;Laerm;43666;51.442;6.778;2023-01-09T10:06:04;37.93;29.92;42.22;;
49732;Laerm;43666;51.442;6.778;2023-01-09T10:08:46;38.21;28.67;41.89;;
49732;Laerm;43666;51.442;6.778;2023-01-09T10:11:17;37.87;28.67;42.93;;
49732;Laerm;43666;51.442;6.778;2023-01-09T10:13:45;38.07;31.68;41.82;;
49732;Laerm;43666;51.442;6.778;2023-01-09T10:16:35;37.98;30.89;41.89;;
49732;Laerm;43666;51.442;6.778;2023-01-09T10:21:44;38.39;31.68;42.09;;
49732;Laerm;43666;51.442;6.778;2023-01-09T10:24:17;38.65;31.68;41.82;;
49732;Laerm;43666;51.442;6.778;2023-01-09T10:26:49;38.39;31.68;41.75;;
49732;Laerm;43666;51.442;6.778;2023-01-09T10:37:10;37.90;30.89;41.46;;
49732;Laerm;43666;51.442;6.778;2023-01-09T10:39:39;38.25;32.35;41.82;;
49732;Laerm;43666;51.442;6.778;2023-01-09T10:42:11;38.27;30.89;42.09;;
49732;Laerm;43666;51.442;6.778;2023-01-09T10:44:44;38.11;29.92;41.82;;
49732;Laerm;43666;51.442;6.778;2023-01-09T10:47:15;38.23;29.92;41.89;;
49732;Laerm;43666;51.442;6.778;2023-01-09T10:49:41;38.47;30.89;41.89;;
49732;Laerm;43666;51.442;6.778;2023-01-09T10:54:36;38.50;32.35;42.29;;
49732;Laerm;43666;51.442;6.778;2023-01-09T10:57:08;38.53;28.67;42.41;;
49732;Laerm;43666;51.442;6.778;2023-01-09T10:59:37;38.73;31.68;42.69;;
49732;Laerm;43666;51.442;6.778;2023-01-09T11:02:03;38.49;31.68;42.41;;
49732;Laerm;43666;51.442;6.778;2023-01-09T11:04:33;38.51;31.68;42.03;;
49732;Laerm;43666;51.442;6.778;2023-01-09T11:07:11;38.43;32.35;42.29;;
49732;Laerm;43666;51.442;6.778;2023-01-09T11:09:57;38.64;31.68;42.59;;
49732;Laerm;43666;51.442;6.778;2023-01-09T11:12:23;38.73;30.89;42.22;;
49732;Laerm;43666;51.442;6.778;2023-01-09T11:14:50;38.78;32.93;41.96;;
49732;Laerm;43666;51.442;6.778;2023-01-09T11:17:25;38.77;32.35;42.41;;
49732;Laerm;43666;51.442;6.778;2023-01-09T11:20:04;38.75;32.00;42.47;;
49732;Laerm;43666;51.442;6.778;2023-01-09T11:22:46;38.66;31.68;42.22;;
49732;Laerm;43666;51.442;6.778;2023-01-09T11:25:13;38.25;23.90;42.59;;
49732;Laerm;43666;51.442;6.778;2023-01-09T11:27:39;37.95;30.89;42.16;;
49732;Laerm;43666;51.442;6.778;2023-01-09T11:30:20;38.53;30.89;42.35;;
49732;Laerm;43666;51.442;6.778;2023-01-09T11:32:51;38.70;32.35;42.59;;
49732;Laerm;43666;51.442;6.778;2023-01-09T11:37:43;38.92;30.89;41.96;;
49732;Laerm;43666;51.442;6.778;2023-01-09T11:40:19;38.79;32.35;42.35;;
49732;Laerm;43666;51.442;6.778;2023-01-09T11:45:30;38.60;32.35;42.24;;
49732;Laerm;43666;51.442;6.778;2023-01-09T11:47:57;38.53;32.35;42.22;;
49732;Laerm;43666;51.442;6.778;2023-01-09T11:50:27;38.24;31.68;41.96;;
49732;Laerm;43666;51.442;6.778;2023-01-09T11:55:37;38.16;30.89;41.38;;
49732;Laerm;43666;51.442;6.778;2023-01-09T11:58:03;38.19;32.35;41.61;;
49732;Laerm;43666;51.442;6.778;2023-01-09T12:00:29;38.39;32.93;42.65;;
49732;Laerm;43666;51.442;6.778;2023-01-09T12:05:41;38.08;31.33;41.61;;
49732;Laerm;43666;51.442;6.778;2023-01-09T12:11:18;38.10;32.35;41.75;;
49732;Laerm;43666;51.442;6.778;2023-01-09T12:26:44;38.66;32.00;42.47;;
49732;Laerm;43666;51.442;6.778;2023-01-09T12:29:25;38.65;32.35;41.96;;
49732;Laerm;43666;51.442;6.778;2023-01-09T12:34:51;38.73;30.89;42.29;;
49732;Laerm;43666;51.442;6.778;2023-01-09T12:37:29;38.79;30.89;42.16;;
49732;Laerm;43666;51.442;6.778;2023-01-09T12:45:12;38.66;32.93;42.03;;
49732;Laerm;43666;51.442;6.778;2023-01-09T12:47:45;38.30;30.89;41.75;;
49732;Laerm;43666;51.442;6.778;2023-01-09T12:53:07;38.40;32.35;42.00;;
49732;Laerm;43666;51.442;6.778;2023-01-09T12:55:37;38.39;31.68;42.03;;
49732;Laerm;43666;51.442;6.778;2023-01-09T12:58:07;38.47;30.89;41.68;;
49732;Laerm;43666;51.442;6.778;2023-01-09T13:00:39;38.38;26.91;42.16;;
49732;Laerm;43666;51.442;6.778;2023-01-09T13:05:49;38.15;32.35;41.68;;
49732;Laerm;43666;51.442;6.778;2023-01-09T13:08:33;38.04;31.68;41.68;;
49732;Laerm;43666;51.442;6.778;2023-01-09T13:11:08;38.09;28.67;41.89;;
49732;Laerm;43666;51.442;6.778;2023-01-09T13:16:26;38.29;31.68;41.46;;
49732;Laerm;43666;51.442;6.778;2023-01-09T13:19:07;38.22;29.92;41.75;;
49732;Laerm;43666;51.442;6.778;2023-01-09T13:21:37;38.21;28.67;42.22;;
49732;Laerm;43666;51.442;6.778;2023-01-09T13:24:21;38.25;31.68;41.38;;
49732;Laerm;43666;51.442;6.778;2023-01-09T13:26:50;38.27;30.89;42.03;;
49732;Laerm;43666;51.442;6.778;2023-01-09T13:29:20;38.26;32.35;41.68;;
49732;Laerm;43666;51.442;6.778;2023-01-09T13:34:14;38.07;30.89;41.61;;
49732;Laerm;43666;51.442;6.778;2023-01-09T13:36:46;38.11;31.68;41.38;;
49732;Laerm;43666;51.442;6.778;2023-01-09T13:39:22;38.15;31.68;41.53;;
49732;Laerm;43666;51.442;6.778;2023-01-09T13:41:59;38.17;31.68;41.46;;
49732;Laerm;43666;51.442;6.778;2023-01-09T13:44:45;38.12;31.68;41.61;;
49732;Laerm;43666;51.442;6.778;2023-01-09T13:47:16;38.14;29.92;42.09;;
49732;Laerm;43666;51.442;6.778;2023-01-09T13:52:31;38.10;30.89;41.30;;
49732;Laerm;43666;51.442;6.778;2023-01-09T13:57:35;38.47;29.92;42.22;;
49732;Laerm;43666;51.442;6.778;2023-01-09T14:05:07;38.19;30.89;41.89;;
49732;Laerm;43666;51.442;6.778;2023-01-09T14:07:46;38.23;30.89;41.75;;
49732;Laerm;43666;51.442;6.778;2023-01-09T14:10:24;38.36;32.93;42.16;;
49732;Laerm;43666;51.442;6.778;2023-01-09T14:12:51;38.31;32.35;41.61;;
49732;Laerm;43666;51.442;6.778;2023-01-09T14:18:03;38.20;32.93;41.82;;
49732;Laerm;43666;51.442;6.778;2023-01-09T14:20:31;38.25;30.89;42.29;;
49732;Laerm;43666;51.442;6.778;2023-01-09T14:23:00;38.24;32.35;43.09;;
49732;Laerm;43666;51.442;6.778;2023-01-09T14:25:27;38.15;30.89;41.53;;
49732;Laerm;43666;51.442;6.778;2023-01-09T14:33:00;38.12;29.92;41.53;;
49732;Laerm;43666;51.442;6.778;2023-01-09T14:35:37;37.91;28.67;41.14;;
49732;Laerm;43666;51.442;6.778;2023-01-09T14:39:05;37.96;31.68;41.06;;
49732;Laerm;43666;51.442;6.778;2023-01-09T14:41:03;37.78;26.91;41.22;;
49732;Laerm;43666;51.442;6.778;2023-01-09T14:43:42;37.37;29.92;41.61;;
49732;Laerm;43666;51.442;6.778;2023-01-09T14:46:11;37.74;28.67;41.46;;
49732;Laerm;43666;51.442;6.778;2023-01-09T14:49:02;37.78;31.68;41.53;;
49732;Laerm;43666;51.442;6.778;2023-01-09T14:51:24;37.81;29.92;42.16;;
49732;Laerm;43666;51.442;6.778;2023-01-09T14:53:52;38.05;30.89;41.46;;
49732;Laerm;43666;51.442;6.778;2023-01-09T14:56:30;38.14;30.89;41.46;;
49732;Laerm;43666;51.442;6.778;2023-01-09T14:59:03;38.19;29.92;41.96;;
49732;Laerm;43666;51.442;6.778;2023-01-09T15:01:29;37.66;29.92;41.38;;
49732;Laerm;43666;51.442;6.778;2023-01-09T15:03:57;38.16;31.68;41.48;;
49732;Laerm;43666;51.442;6.778;2023-01-09T15:06:33;37.90;30.89;41.38;;
49732;Laerm;43666;51.442;6.778;2023-01-09T15:09:05;38.00;30.89;41.30;;
49732;Laerm;43666;51.442;6.778;2023-01-09T15:11:32;38.15;30.89;41.30;;
49732;Laerm;43666;51.442;6.778;2023-01-09T15:13:58;38.05;32.35;41.03;;
49732;Laerm;43666;51.442;6.778;2023-01-09T15:16:26;38.36;29.92;41.61;;
49732;Laerm;43666;51.442;6.778;2023-01-09T15:18:56;38.32;32.35;41.53;;
49732;Laerm;43666;51.442;6.778;2023-01-09T15:21:24;38.46;32.00;41.89;;
49732;Laerm;43666;51.442;6.778;2023-01-09T15:23:50;38.53;32.35;41.96;;
49732;Laerm;43666;51.442;6.778;2023-01-09T15:26:27;38.56;32.35;41.61;;
49732;Laerm;43666;51.442;6.778;2023-01-09T15:29:01;38.65;31.68;41.75;;
49732;Laerm;43666;51.442;6.778;2023-01-09T15:31:27;38.55;32.35;41.61;;
49732;Laerm;43666;51.442;6.778;2023-01-09T15:33:53;38.56;30.89;41.75;;
49732;Laerm;43666;51.442;6.778;2023-01-09T15:36:21;38.16;31.68;41.53;;
49732;Laerm;43666;51.442;6.778;2023-01-09T15:38:48;38.23;28.67;41.46;;
49732;Laerm;43666;51.442;6.778;2023-01-09T15:41:15;38.49;32.35;42.09;;
49732;Laerm;43666;51.442;6.778;2023-01-09T15:44:05;38.40;32.35;41.68;;
49732;Laerm;43666;51.442;6.778;2023-01-09T15:46:31;38.27;31.68;41.30;;